createdAt,value
2022-09-23T00:01:16.181Z,101705.56
2022-09-23T00:03:45.655Z,101708.38
2022-09-23T00:06:22.344Z,101710.22
2022-09-23T00:08:50.083Z,101714.81
2022-09-23T00:11:24.559Z,101710.47
2022-09-23T00:13:58.726Z,101712.50
2022-09-23T00:16:34.638Z,101702.97
2022-09-23T00:19:03.622Z,101707.81
2022-09-23T00:21:30.657Z,101704.44
2022-09-23T00:23:57.643Z,101708.28
2022-09-23T00:26:24.771Z,101703.06
2022-09-23T00:28:52.594Z,101705.16
2022-09-23T00:31:26.073Z,101705.34
2022-09-23T00:34:01.199Z,101696.72
2022-09-23T00:36:29.758Z,101703.13
2022-09-23T00:38:56.907Z,101698.69
2022-09-23T00:41:25.158Z,101699.59
2022-09-23T00:43:56.790Z,101696.19
2022-09-23T00:46:28.667Z,101705.22
2022-09-23T00:49:06.764Z,101701.84
2022-09-23T00:51:40.188Z,101687.75
2022-09-23T00:54:08.048Z,101692.25
2022-09-23T00:56:36.815Z,101697.63
2022-09-23T00:59:05.234Z,101692.25
2022-09-23T01:01:32.258Z,101688.03
2022-09-23T01:03:59.372Z,101682.84
2022-09-23T01:06:26.387Z,101682.06
2022-09-23T01:08:53.615Z,101685.72
2022-09-23T01:11:42.341Z,101682.25
2022-09-23T01:14:32.105Z,101679.66
2022-09-23T01:17:11.490Z,101681.44
2022-09-23T01:20:09.710Z,101678.00
2022-09-23T01:22:54.686Z,101677.03
2022-09-23T01:25:34.729Z,101673.38
2022-09-23T01:28:33.934Z,101685.22
2022-09-23T01:31:35.040Z,101680.78
2022-09-23T01:34:19.119Z,101669.28
2022-09-23T01:37:03.854Z,101675.50
2022-09-23T01:40:02.942Z,101676.56
2022-09-23T01:42:39.560Z,101681.25
2022-09-23T01:45:16.211Z,101676.72
2022-09-23T01:47:54.948Z,101678.63
2022-09-23T01:50:49.502Z,101675.28
2022-09-23T01:53:25.666Z,101684.47
2022-09-23T01:55:57.876Z,101681.78
2022-09-23T01:58:43.176Z,101677.38
2022-09-23T02:01:16.313Z,101678.25
2022-09-23T02:04:22.449Z,101678.59
2022-09-23T02:06:59.776Z,101672.38
2022-09-23T02:09:36.214Z,101680.50
2022-09-23T02:12:09.602Z,101674.44
2022-09-23T02:14:49.312Z,101690.00
2022-09-23T02:17:31.780Z,101686.44
2022-09-23T02:20:04.361Z,101681.16
2022-09-23T02:22:51.763Z,101682.19
2022-09-23T02:25:22.533Z,101685.94
2022-09-23T02:28:08.115Z,101688.00
2022-09-23T02:30:46.902Z,101678.13
2022-09-23T02:33:52.203Z,101666.69
2022-09-23T02:36:33.064Z,101669.56
2022-09-23T02:39:06.328Z,101672.19
2022-09-23T02:41:50.127Z,101666.09
2022-09-23T02:44:19.527Z,101673.28
2022-09-23T02:46:47.214Z,101666.09
2022-09-23T02:49:25.799Z,101665.34
2022-09-23T02:51:54.563Z,101664.47
2022-09-23T02:54:25.815Z,101659.19
2022-09-23T02:56:53.606Z,101656.59
2022-09-23T02:59:23.209Z,101660.22
2022-09-23T03:02:21.740Z,101663.97
2022-09-23T03:05:18.148Z,101659.44
2022-09-23T03:08:06.382Z,101655.00
2022-09-23T03:10:53.967Z,101661.28
2022-09-23T03:14:22.003Z,101660.50
2022-09-23T03:17:04.860Z,101654.47
2022-09-23T03:19:56.108Z,101654.69
2022-09-23T03:22:34.047Z,101651.19
2022-09-23T03:25:09.433Z,101644.28
2022-09-23T03:27:37.992Z,101655.09
2022-09-23T03:30:07.619Z,101646.34
2022-09-23T03:32:35.165Z,101653.72
2022-09-23T03:35:05.036Z,101652.00
2022-09-23T03:40:51.062Z,101643.94
2022-09-23T03:43:18.963Z,101647.38
2022-09-23T03:45:46.536Z,101634.06
2022-09-23T03:48:16.453Z,101644.97
2022-09-23T03:50:43.463Z,101632.53
2022-09-23T03:53:13.794Z,101638.94
2022-09-23T03:55:40.884Z,101636.47
2022-09-23T03:58:08.212Z,101633.03
2022-09-23T04:00:36.216Z,101629.56
2022-09-23T04:03:06.135Z,101630.53
2022-09-23T04:05:36.136Z,101634.34
2022-09-23T04:08:03.093Z,101636.13
2022-09-23T04:10:30.011Z,101630.06
2022-09-23T04:12:56.836Z,101636.41
2022-09-23T04:15:23.751Z,101625.84
2022-09-23T04:17:51.261Z,101627.72
2022-09-23T04:20:19.031Z,101639.59
2022-09-23T04:22:46.123Z,101638.03
2022-09-23T04:25:13.069Z,101643.56
2022-09-23T04:27:40.041Z,101647.22
2022-09-23T04:30:07.903Z,101647.13
2022-09-23T04:32:34.854Z,101647.22
2022-09-23T04:35:01.943Z,101652.81
2022-09-23T04:37:29.475Z,101646.75
2022-09-23T04:39:57.313Z,101652.28
2022-09-23T04:42:24.640Z,101647.09
2022-09-23T04:44:51.523Z,101655.22
2022-09-23T04:47:19.326Z,101651.69
2022-09-23T04:49:46.220Z,101652.63
2022-09-23T04:52:13.233Z,101654.59
2022-09-23T04:54:41.547Z,101660.06
2022-09-23T04:57:11.104Z,101659.25
2022-09-23T04:59:38.162Z,101663.84
2022-09-23T05:02:05.505Z,101662.13
2022-09-23T05:04:32.742Z,101665.66
2022-09-23T05:07:03.265Z,101661.25
2022-09-23T05:09:31.175Z,101667.56
2022-09-23T05:11:58.143Z,101666.69
2022-09-23T05:14:25.166Z,101657.78
2022-09-23T05:16:52.540Z,101662.28
2022-09-23T05:19:19.483Z,101663.22
2022-09-23T05:21:46.488Z,101659.75
2022-09-23T05:24:13.559Z,101660.72
2022-09-23T05:26:40.683Z,101661.56
2022-09-23T05:29:08.032Z,101660.78
2022-09-23T05:31:35.652Z,101658.81
2022-09-23T05:34:05.519Z,101654.41
2022-09-23T05:36:38.694Z,101658.81
2022-09-23T05:39:08.342Z,101655.19
2022-09-23T05:41:36.326Z,101654.16
2022-09-23T05:44:03.428Z,101649.66
2022-09-23T05:46:32.210Z,101655.03
2022-09-23T05:49:03.018Z,101654.94
2022-09-23T05:51:31.976Z,101659.44
2022-09-23T05:54:00.804Z,101658.56
2022-09-23T05:56:29.271Z,101656.69
2022-09-23T05:58:59.457Z,101660.06
2022-09-23T06:01:35.364Z,101659.09
2022-09-23T06:04:05.748Z,101661.69
2022-09-23T06:06:37.335Z,101668.00
2022-09-23T06:09:05.957Z,101668.81
2022-09-23T06:11:35.947Z,101662.59
2022-09-23T06:14:04.269Z,101665.09
2022-09-23T06:16:35.228Z,101670.09
2022-09-23T06:19:06.739Z,101661.03
2022-09-23T06:21:38.096Z,101664.25
2022-09-23T06:24:06.699Z,101657.78
2022-09-23T06:26:35.627Z,101658.47
2022-09-23T06:29:04.801Z,101647.47
2022-09-23T06:31:33.128Z,101651.72
2022-09-23T06:34:12.192Z,101646.97
2022-09-23T06:36:45.072Z,101652.00
2022-09-23T06:39:14.328Z,101650.84
2022-09-23T06:41:42.470Z,101657.72
2022-09-23T06:44:14.410Z,101653.78
2022-09-23T06:46:41.659Z,101652.75
2022-09-23T06:49:08.781Z,101652.41
2022-09-23T06:51:35.777Z,101651.19
2022-09-23T06:54:03.517Z,101646.53
2022-09-23T06:56:34.701Z,101647.06
2022-09-23T06:59:05.496Z,101651.41
2022-09-23T07:01:32.618Z,101646.72
2022-09-23T07:04:00.681Z,101654.59
2022-09-23T07:06:28.063Z,101648.00
2022-09-23T07:08:54.984Z,101651.19
2022-09-23T07:11:23.461Z,101646.50
2022-09-23T07:13:51.158Z,101645.25
2022-09-23T07:16:18.406Z,101651.34
2022-09-23T07:18:45.830Z,101645.69
2022-09-23T07:21:17.749Z,101648.97
2022-09-23T07:23:50.404Z,101639.75
2022-09-23T07:26:20.050Z,101642.94
2022-09-23T07:28:47.328Z,101649.00
2022-09-23T07:31:27.918Z,101646.00
2022-09-23T07:34:01.174Z,101650.84
2022-09-23T07:36:32.364Z,101660.38
2022-09-23T07:39:03.855Z,101660.84
2022-09-23T07:41:32.634Z,101655.84
2022-09-23T07:44:00.580Z,101667.00
2022-09-23T07:46:31.651Z,101653.56
2022-09-23T07:48:59.222Z,101656.84
2022-09-23T07:51:36.070Z,101661.94
2022-09-23T07:54:07.894Z,101652.47
2022-09-23T07:56:37.018Z,101654.78
2022-09-23T07:59:05.866Z,101661.56
2022-09-23T08:01:44.319Z,101662.81
2022-09-23T08:04:19.846Z,101661.56
2022-09-23T08:06:54.201Z,101652.13
2022-09-23T08:09:26.171Z,101657.88
2022-09-23T08:11:53.686Z,101654.91
2022-09-23T08:14:22.495Z,101659.91
2022-09-23T08:16:50.342Z,101662.19
2022-09-23T08:19:17.355Z,101660.91
2022-09-23T08:21:47.428Z,101663.13
2022-09-23T08:24:18.474Z,101664.44
2022-09-23T08:26:47.583Z,101664.69
2022-09-23T08:29:16.943Z,101672.25
2022-09-23T08:31:44.222Z,101662.72
2022-09-23T08:34:11.523Z,101668.66
2022-09-23T08:36:38.574Z,101663.84
2022-09-23T08:39:06.647Z,101665.13
2022-09-23T08:42:27.794Z,101665.50
2022-09-23T08:44:58.859Z,101667.56
2022-09-23T08:47:53.809Z,101674.16
2022-09-23T08:50:24.504Z,101666.41
2022-09-23T08:53:03.585Z,101661.22
2022-09-23T08:55:40.188Z,101659.69
2022-09-23T08:58:41.581Z,101653.78
2022-09-23T09:01:40.631Z,101655.84
2022-09-23T09:04:35.251Z,101650.75
2022-09-23T09:07:34.646Z,101648.28
2022-09-23T09:10:03.604Z,101652.25
2022-09-23T09:13:04.154Z,101654.31
2022-09-23T09:15:32.070Z,101646.63
2022-09-23T09:18:26.700Z,101637.09
2022-09-23T09:21:05.353Z,101635.56
2022-09-23T09:24:03.400Z,101647.63
2022-09-23T09:26:34.118Z,101635.50
2022-09-23T09:29:34.109Z,101640.34
2022-09-23T09:32:36.327Z,101636.44
2022-09-23T09:35:21.077Z,101631.44
2022-09-23T09:37:48.206Z,101625.59
2022-09-23T09:40:17.273Z,101636.66
2022-09-23T09:42:49.976Z,101627.09
2022-09-23T09:45:57.496Z,101621.03
2022-09-23T09:48:38.953Z,101624.03
2022-09-23T09:51:21.580Z,101624.41
2022-09-23T09:53:52.087Z,101615.81
2022-09-23T09:56:31.603Z,101620.88
2022-09-23T09:59:06.760Z,101621.25
2022-09-23T10:01:35.518Z,101608.97
2022-09-23T10:04:22.773Z,101610.34
2022-09-23T10:07:06.926Z,101612.41
2022-09-23T10:09:37.707Z,101599.50
2022-09-23T10:12:18.721Z,101603.56
2022-09-23T10:14:52.411Z,101599.28
2022-09-23T10:17:35.551Z,101601.38
2022-09-23T10:20:09.675Z,101598.09
2022-09-23T10:22:42.419Z,101596.63
2022-09-23T10:25:29.833Z,101595.47
2022-09-23T10:27:56.762Z,101583.28
2022-09-23T10:30:27.582Z,101597.09
2022-09-23T10:32:56.958Z,101589.44
2022-09-23T10:35:25.578Z,101591.38
2022-09-23T10:37:58.031Z,101589.88
2022-09-23T10:41:00.763Z,101589.38
2022-09-23T10:43:51.671Z,101590.72
2022-09-23T10:46:46.535Z,101579.13
2022-09-23T10:49:51.855Z,101584.91
2022-09-23T10:53:05.336Z,101576.25
2022-09-23T10:56:13.867Z,101579.41
2022-09-23T11:02:07.496Z,101573.47
2022-09-23T11:05:11.583Z,101573.81
2022-09-23T11:08:03.705Z,101566.00
2022-09-23T11:11:20.037Z,101565.31
2022-09-23T11:14:01.316Z,101557.94
2022-09-23T11:17:14.632Z,101558.00
2022-09-23T11:20:23.768Z,101553.00
2022-09-23T11:23:10.370Z,101557.63
2022-09-23T11:26:03.108Z,101551.41
2022-09-23T11:28:46.768Z,101545.16
2022-09-23T11:35:00.263Z,101537.41
2022-09-23T11:37:35.476Z,101520.41
2022-09-23T11:40:19.661Z,101527.00
2022-09-23T11:43:14.270Z,101520.47
2022-09-23T11:45:58.723Z,101515.34
2022-09-23T11:48:57.101Z,101508.50
2022-09-23T11:51:34.707Z,101514.50
2022-09-23T11:54:27.935Z,101495.03
2022-09-23T11:57:07.146Z,101487.34
2022-09-23T12:00:10.490Z,101489.50
2022-09-23T12:03:10.127Z,101475.47
2022-09-23T12:05:51.623Z,101479.34
2022-09-23T12:08:40.966Z,101482.38
2022-09-23T12:12:03.309Z,101479.34
2022-09-23T12:15:18.887Z,101477.78
2022-09-23T12:18:05.761Z,101472.34
2022-09-23T12:20:59.489Z,101476.78
2022-09-23T12:23:42.263Z,101462.91
2022-09-23T12:26:17.284Z,101459.91
2022-09-23T12:28:51.007Z,101449.28
2022-09-23T12:31:33.888Z,101463.28
2022-09-23T12:34:30.863Z,101448.69
2022-09-23T12:37:07.806Z,101448.09
2022-09-23T12:39:39.073Z,101449.22
2022-09-23T12:42:21.458Z,101428.00
2022-09-23T12:44:49.510Z,101437.56
2022-09-23T12:47:24.918Z,101439.06
2022-09-23T12:49:58.200Z,101440.75
2022-09-23T12:52:30.915Z,101429.31
2022-09-23T12:55:23.389Z,101436.63
2022-09-23T12:57:51.322Z,101429.03
2022-09-23T13:00:25.875Z,101425.84
2022-09-23T13:03:17.896Z,101423.84
2022-09-23T13:06:15.156Z,101417.69
2022-09-23T13:08:44.160Z,101405.22
2022-09-23T13:11:27.104Z,101405.66
2022-09-23T13:13:58.105Z,101402.81
2022-09-23T13:16:37.901Z,101395.53
2022-09-23T13:19:09.203Z,101391.63
2022-09-23T13:21:45.879Z,101389.63
2022-09-23T13:24:13.739Z,101391.19
2022-09-23T13:27:06.247Z,101393.19
2022-09-23T13:29:57.869Z,101395.59
2022-09-23T13:33:01.635Z,101387.13
2022-09-23T13:35:43.804Z,101385.53
2022-09-23T13:38:25.086Z,101384.91
2022-09-23T13:41:01.818Z,101384.06
2022-09-23T13:43:40.283Z,101386.66
2022-09-23T13:46:17.438Z,101382.72
2022-09-23T13:48:47.367Z,101377.81
2022-09-23T13:51:35.723Z,101371.53
2022-09-23T13:54:05.189Z,101375.22
2022-09-23T13:56:35.383Z,101369.50
2022-09-23T13:59:26.122Z,101365.78
2022-09-23T14:02:25.809Z,101374.19
2022-09-23T14:04:58.622Z,101363.13
2022-09-23T14:07:26.656Z,101361.56
2022-09-23T14:09:56.018Z,101359.03
2022-09-23T14:12:23.564Z,101339.34
2022-09-23T14:14:52.787Z,101340.66
2022-09-23T14:17:25.451Z,101347.81
2022-09-23T14:19:52.782Z,101335.91
2022-09-23T14:22:29.559Z,101337.63
2022-09-23T14:24:58.709Z,101340.88
2022-09-23T14:27:32.406Z,101340.59
2022-09-23T14:30:02.319Z,101341.16
2022-09-23T14:32:30.269Z,101346.13
2022-09-23T14:35:00.320Z,101345.78
2022-09-23T14:37:52.278Z,101331.50
2022-09-23T14:41:14.542Z,101336.38
2022-09-23T14:44:07.855Z,101330.84
2022-09-23T14:46:37.866Z,101327.16
2022-09-23T14:49:16.875Z,101320.28
2022-09-23T14:51:50.243Z,101315.44
2022-09-23T14:54:39.496Z,101303.88
2022-09-23T14:57:29.007Z,101308.59
2022-09-23T15:00:03.887Z,101308.75
2022-09-23T15:02:42.394Z,101308.91
2022-09-23T15:05:20.717Z,101310.59
2022-09-23T15:07:53.311Z,101305.47
2022-09-23T15:10:27.758Z,101300.03
2022-09-23T15:13:04.463Z,101298.88
2022-09-23T15:15:31.624Z,101309.63
2022-09-23T15:18:18.777Z,101304.19
2022-09-23T15:20:55.599Z,101296.44
2022-09-23T15:23:40.990Z,101295.91
2022-09-23T15:26:21.044Z,101298.91
2022-09-23T15:28:50.006Z,101304.66
2022-09-23T15:31:20.188Z,101298.53
2022-09-23T15:33:48.745Z,101301.38
2022-09-23T15:36:28.638Z,101296.97
2022-09-23T15:38:57.259Z,101295.41
2022-09-23T15:41:26.503Z,101292.69
2022-09-23T15:43:56.532Z,101284.13
2022-09-23T15:46:28.600Z,101295.31
2022-09-23T15:49:27.911Z,101283.72
2022-09-23T15:51:59.948Z,101284.00
2022-09-23T15:54:29.022Z,101290.47
2022-09-23T15:56:56.699Z,101275.13
2022-09-23T15:59:27.115Z,101282.44
2022-09-23T16:01:56.966Z,101286.16
2022-09-23T16:04:26.635Z,101275.44
2022-09-23T16:06:53.592Z,101276.75
2022-09-23T16:09:20.523Z,101280.47
2022-09-23T16:11:49.723Z,101287.91
2022-09-23T16:14:18.622Z,101284.50
2022-09-23T16:16:47.840Z,101283.78
2022-09-23T16:19:17.681Z,101284.25
2022-09-23T16:21:44.864Z,101289.97
2022-09-23T16:24:17.924Z,101289.41
2022-09-23T16:26:46.851Z,101287.09
2022-09-23T16:29:14.740Z,101280.38
2022-09-23T16:31:42.025Z,101285.41
2022-09-23T16:34:09.039Z,101287.69
2022-09-23T16:36:41.377Z,101284.56
2022-09-23T16:39:12.630Z,101282.56
2022-09-23T16:41:45.576Z,101281.31
2022-09-23T16:44:12.696Z,101282.75
2022-09-23T16:46:42.912Z,101286.88
2022-09-23T16:49:12.150Z,101283.03
2022-09-23T16:51:40.186Z,101286.31
2022-09-23T16:54:11.914Z,101284.06
2022-09-23T16:56:45.296Z,101281.75
2022-09-23T16:59:14.363Z,101283.16
2022-09-23T17:02:00.339Z,101287.31
2022-09-23T17:04:31.511Z,101279.72
2022-09-23T17:06:59.189Z,101291.16
2022-09-23T17:09:29.123Z,101285.28
2022-09-23T17:12:15.814Z,101284.00
2022-09-23T17:14:43.756Z,101292.69
2022-09-23T17:17:10.688Z,101290.53
2022-09-23T17:19:41.320Z,101299.13
2022-09-23T17:22:10.181Z,101292.38
2022-09-23T17:24:56.296Z,101290.34
2022-09-23T17:27:24.938Z,101300.75
2022-09-23T17:29:54.216Z,101302.03
2022-09-23T17:32:21.909Z,101302.59
2022-09-23T17:34:49.102Z,101303.13
2022-09-23T17:37:16.142Z,101302.66
2022-09-23T17:39:43.151Z,101307.47
2022-09-23T17:42:10.667Z,101306.03
2022-09-23T17:44:38.398Z,101308.16
2022-09-23T17:47:06.255Z,101310.41
2022-09-23T17:52:38.032Z,101306.69
2022-09-23T17:55:06.707Z,101303.34
2022-09-23T17:57:33.812Z,101298.50
2022-09-23T18:00:00.904Z,101307.88
2022-09-23T18:02:28.973Z,101312.69
2022-09-23T18:04:56.211Z,101318.53
2022-09-23T18:07:23.245Z,101314.97
2022-09-23T18:09:50.286Z,101320.75
2022-09-23T18:12:17.437Z,101312.91
2022-09-23T18:14:45.388Z,101317.63
2022-09-23T18:17:12.358Z,101315.16
2022-09-23T18:19:39.281Z,101329.69
2022-09-23T18:22:06.392Z,101328.22
2022-09-23T18:24:38.007Z,101317.66
2022-09-23T18:27:06.730Z,101326.03
2022-09-23T18:29:35.130Z,101325.34
2022-09-23T18:32:04.508Z,101321.03
2022-09-23T18:34:32.325Z,101322.16
2022-09-23T18:37:00.110Z,101319.69
2022-09-23T18:39:28.772Z,101316.25
2022-09-23T18:41:57.013Z,101319.97
2022-09-23T18:44:26.546Z,101320.09
2022-09-23T18:46:54.863Z,101320.09
2022-09-23T18:49:42.297Z,101321.22
2022-09-23T18:52:10.235Z,101319.47
2022-09-23T18:54:38.771Z,101311.47
2022-09-23T18:57:06.697Z,101314.31
2022-09-23T18:59:33.663Z,101309.88
2022-09-23T19:02:01.134Z,101314.44
2022-09-23T19:04:30.013Z,101314.59
2022-09-23T19:06:57.972Z,101310.13
2022-09-23T19:09:26.301Z,101316.69
2022-09-23T19:11:54.933Z,101314.00
2022-09-23T19:14:23.494Z,101321.22
2022-09-23T19:16:52.521Z,101315.81
2022-09-23T19:19:21.169Z,101315.94
2022-09-23T19:21:48.781Z,101327.78
2022-09-23T19:24:20.105Z,101315.22
2022-09-23T19:26:51.971Z,101316.34
2022-09-23T19:29:19.835Z,101321.75
2022-09-23T19:31:48.954Z,101321.88
2022-09-23T19:34:30.638Z,101320.28
2022-09-23T19:37:01.407Z,101315.13
2022-09-23T19:39:31.664Z,101322.66
2022-09-23T19:42:00.424Z,101323.75
2022-09-23T19:44:28.536Z,101320.34
2022-09-23T19:46:57.476Z,101324.03
2022-09-23T19:49:27.250Z,101328.81
2022-09-23T19:51:58.550Z,101320.00
2022-09-23T19:54:28.952Z,101321.94
2022-09-23T19:56:57.173Z,101323.19
2022-09-23T19:59:26.472Z,101318.03
2022-09-23T20:01:55.055Z,101319.03
2022-09-23T20:04:23.335Z,101317.44
2022-09-23T20:06:51.690Z,101313.13
2022-09-23T20:09:21.341Z,101311.69
2022-09-23T20:11:51.716Z,101318.34
2022-09-23T20:14:19.813Z,101315.88
2022-09-23T20:16:48.356Z,101316.13
2022-09-23T20:19:17.081Z,101317.94
2022-09-23T20:22:07.060Z,101313.69
2022-09-23T20:24:36.528Z,101306.66
2022-09-23T20:27:11.438Z,101310.38
2022-09-23T20:29:42.309Z,101302.63
2022-09-23T20:32:12.813Z,101308.28
2022-09-23T20:34:48.269Z,101303.13
2022-09-23T20:37:17.556Z,101303.38
2022-09-23T20:39:46.118Z,101301.66
2022-09-23T20:42:16.165Z,101308.06
2022-09-23T20:44:46.068Z,101304.72
2022-09-23T20:47:17.964Z,101305.66
2022-09-23T20:49:47.459Z,101303.09
2022-09-23T20:52:20.227Z,101305.91
2022-09-23T20:54:50.804Z,101311.31
2022-09-23T20:57:20.017Z,101314.03
2022-09-23T20:59:48.300Z,101316.97
2022-09-23T21:02:16.068Z,101313.41
2022-09-23T21:04:44.370Z,101312.56
2022-09-23T21:07:11.725Z,101311.72
2022-09-23T21:09:38.839Z,101311.56
2022-09-23T21:12:07.085Z,101317.13
2022-09-23T21:14:37.556Z,101317.13
2022-09-23T21:17:04.701Z,101312.56
2022-09-23T21:19:35.801Z,101320.66
2022-09-23T21:22:03.404Z,101311.47
2022-09-23T21:25:25.863Z,101309.63
2022-09-23T21:27:18.348Z,101314.03
2022-09-23T21:29:46.349Z,101315.75
2022-09-23T21:32:16.338Z,101316.47
2022-09-23T21:34:46.499Z,101320.94
2022-09-23T21:37:18.686Z,101311.69
2022-09-23T21:40:05.971Z,101313.47
2022-09-23T21:42:36.789Z,101314.38
2022-09-23T21:45:05.309Z,101315.38
2022-09-23T21:47:32.495Z,101315.38
2022-09-23T21:50:00.314Z,101308.13
2022-09-23T21:52:27.731Z,101316.22
2022-09-23T21:54:57.680Z,101317.09
2022-09-23T21:57:26.736Z,101316.22
2022-09-23T21:59:55.085Z,101316.38
2022-09-23T22:02:23.596Z,101312.81
2022-09-23T22:04:50.822Z,101308.28
2022-09-23T22:07:20.877Z,101309.22
2022-09-23T22:09:50.630Z,101322.75
2022-09-23T22:12:18.352Z,101321.03
2022-09-23T22:14:49.107Z,101318.47
2022-09-23T22:17:16.978Z,101320.31
2022-09-23T22:19:50.314Z,101324.84
2022-09-23T22:22:19.000Z,101329.38
2022-09-23T22:24:47.773Z,101323.13
2022-09-23T22:27:18.955Z,101331.38
2022-09-23T22:30:05.550Z,101326.06
2022-09-23T22:32:43.695Z,101333.44
2022-09-23T22:35:17.670Z,101335.19
2022-09-23T22:37:45.420Z,101327.19
2022-09-23T22:40:15.320Z,101325.31
2022-09-23T22:42:43.962Z,101328.03
2022-09-23T22:45:12.541Z,101327.19
2022-09-23T22:47:44.050Z,101328.03
2022-09-23T22:50:14.038Z,101323.63
2022-09-23T22:52:41.510Z,101318.22
2022-09-23T22:55:09.120Z,101321.78
2022-09-23T22:57:36.732Z,101313.81
2022-09-23T23:00:07.074Z,101315.66
2022-09-23T23:02:34.107Z,101317.59
2022-09-23T23:05:02.194Z,101307.78
2022-09-23T23:07:29.140Z,101307.91
2022-09-23T23:09:56.094Z,101306.94
2022-09-23T23:12:23.136Z,101305.09
2022-09-23T23:14:56.615Z,101305.09
2022-09-23T23:17:23.965Z,101305.19
2022-09-23T23:19:51.339Z,101304.47
2022-09-23T23:22:18.285Z,101299.06
2022-09-23T23:24:45.231Z,101302.72
2022-09-23T23:27:12.513Z,101302.63
2022-09-23T23:29:39.519Z,101297.22
2022-09-23T23:32:07.774Z,101296.22
2022-09-23T23:34:34.787Z,101300.91
2022-09-23T23:37:02.311Z,101295.63
2022-09-23T23:39:29.547Z,101297.56
2022-09-23T23:41:58.500Z,101293.16
2022-09-23T23:47:08.311Z,101281.59
2022-09-23T23:49:35.537Z,101279.78
2022-09-23T23:52:02.667Z,101279.66
2022-09-23T23:54:29.856Z,101286.03
2022-09-23T23:56:56.794Z,101280.66
2022-09-23T23:59:23.736Z,101282.59
